Time;durP1;ratioP1;P1;durP2;ratioP2;P2;SDS_P1;SDS_P2;PMS_P1;PMS_P2;Temp;Humidity;BMP_temperature;BMP_pressure;BME280_temperature;BME280_humidity;BME280_pressure;Samples;Min_cycle;Max_cycle;Signal;HPM_P1;HPM_P2
2023/09/28 00:02:52;;;;;;;7.60;6.72;;;18.50;99.90;;;;;;5031356;28;20068;-81
2023/09/28 00:05:19;;;;;;;8.10;7.32;;;18.50;99.90;;;;;;5032397;28;20045;-81
2023/09/28 00:07:46;;;;;;;8.68;7.78;;;18.50;99.90;;;;;;5031825;28;20053;-81
2023/09/28 00:10:15;;;;;;;7.65;6.85;;;18.40;99.90;;;;;;5031909;28;20120;-80
2023/09/28 00:12:46;;;;;;;7.57;6.88;;;18.50;99.90;;;;;;5031951;28;20046;-81
2023/09/28 00:15:12;;;;;;;7.93;6.85;;;18.50;99.90;;;;;;5031977;28;20133;-82
2023/09/28 00:17:38;;;;;;;8.15;7.45;;;18.50;99.90;;;;;;5031267;28;20092;-80
2023/09/28 00:23:04;;;;;;;8.25;6.75;;;18.50;99.90;;;;;;5021410;28;20057;-81
2023/09/28 00:25:29;;;;;;;7.57;6.60;;;18.40;99.90;;;;;;5014560;28;20404;-81
2023/09/28 00:27:55;;;;;;;7.05;6.43;;;18.40;99.90;;;;;;5031706;28;20038;-82
2023/09/28 00:30:22;;;;;;;8.50;7.53;;;18.40;99.90;;;;;;5031587;28;20428;-81
2023/09/28 00:32:53;;;;;;;9.68;7.00;;;18.40;99.90;;;;;;5032038;28;20042;-81
2023/09/28 00:35:20;;;;;;;8.98;7.15;;;18.40;99.90;;;;;;5030522;28;20252;-81
2023/09/28 00:37:49;;;;;;;7.93;7.20;;;18.40;99.90;;;;;;5031823;28;20060;-82
2023/09/28 00:40:21;;;;;;;8.13;6.88;;;18.40;99.90;;;;;;5034185;28;20037;-81
2023/09/28 00:42:52;;;;;;;8.60;7.70;;;18.40;99.90;;;;;;5034572;28;20475;-81
2023/09/28 00:45:19;;;;;;;8.60;6.75;;;18.40;99.90;;;;;;5034470;28;20479;-81
2023/09/28 00:47:45;;;;;;;8.45;7.38;;;18.40;99.90;;;;;;5034655;28;20107;-82
2023/09/28 00:50:15;;;;;;;7.70;6.85;;;18.40;99.90;;;;;;5035138;28;20128;-81
2023/09/28 00:52:46;;;;;;;9.27;7.25;;;18.40;99.90;;;;;;5035076;28;20090;-81
2023/09/28 00:55:15;;;;;;;11.23;7.55;;;18.40;99.90;;;;;;5035578;28;20124;-81
2023/09/28 00:57:45;;;;;;;8.35;7.32;;;18.40;99.90;;;;;;5034544;28;20496;-81
2023/09/28 01:00:26;;;;;;;8.20;6.78;;;18.40;99.90;;;;;;5034940;28;20064;-81
2023/09/28 01:02:53;;;;;;;11.35;7.10;;;18.40;99.90;;;;;;5034917;28;20057;-81
2023/09/28 01:05:26;;;;;;;7.85;6.80;;;18.40;99.90;;;;;;5034887;28;20394;-81
2023/09/28 01:07:53;;;;;;;;;;;18.40;99.90;;;;;;5035133;28;20129;-81
2023/09/28 01:10:29;;;;;;;9.95;8.13;;;18.40;99.90;;;;;;5034005;28;19940;-81
2023/09/28 01:12:55;;;;;;;7.38;6.68;;;18.30;99.90;;;;;;5033910;28;20087;-81
2023/09/28 01:15:22;;;;;;;8.00;6.53;;;18.30;99.90;;;;;;5034419;28;20402;-81
2023/09/28 01:17:47;;;;;;;7.28;6.50;;;18.30;99.90;;;;;;5033354;28;20134;-81
2023/09/28 01:20:25;;;;;;;7.68;6.90;;;18.30;99.90;;;;;;5034903;28;20470;-81
2023/09/28 01:22:50;;;;;;;7.22;6.50;;;18.30;99.90;;;;;;5034560;28;20127;-82
2023/09/28 01:25:22;;;;;;;7.05;6.45;;;18.30;99.90;;;;;;5034643;28;20045;-81
2023/09/28 01:27:47;;;;;;;7.28;6.40;;;18.30;99.90;;;;;;5035038;28;22017;-81
2023/09/28 01:30:14;;;;;;;7.20;6.05;;;18.30;99.90;;;;;;5034021;28;20458;-81
2023/09/28 01:32:40;;;;;;;6.90;5.90;;;18.30;99.90;;;;;;5034340;28;20037;-82
2023/09/28 01:35:06;;;;;;;7.65;6.60;;;18.30;99.90;;;;;;5033865;28;20068;-82
2023/09/28 01:37:52;;;;;;;6.97;6.28;;;18.30;99.90;;;;;;5034146;28;20062;-81
2023/09/28 01:40:18;;;;;;;6.53;5.72;;;18.40;99.90;;;;;;5023439;28;20053;-81
2023/09/28 01:42:44;;;;;;;8.68;6.25;;;18.30;99.90;;;;;;5034349;28;20116;-81
2023/09/28 01:45:11;;;;;;;7.05;5.72;;;18.30;99.90;;;;;;5034099;28;20088;-81
2023/09/28 01:47:38;;;;;;;6.22;5.72;;;18.30;99.90;;;;;;5032660;28;20053;-81
2023/09/28 01:50:04;;;;;;;7.63;6.47;;;18.30;99.90;;;;;;5034230;28;20497;-81
2023/09/28 01:52:29;;;;;;;7.13;5.63;;;18.20;99.90;;;;;;5033526;28;20053;-81
2023/09/28 01:54:55;;;;;;;6.03;5.47;;;18.20;99.90;;;;;;5033986;28;20053;-82
2023/09/28 01:57:21;;;;;;;6.88;6.05;;;18.20;99.90;;;;;;5032772;28;20378;-81
2023/09/28 01:59:47;;;;;;;6.90;5.95;;;18.20;99.90;;;;;;5033709;28;20077;-81
2023/09/28 02:02:15;;;;;;;6.25;5.18;;;18.10;99.90;;;;;;5033496;28;20049;-81
2023/09/28 02:04:41;;;;;;;8.40;5.82;;;18.10;99.90;;;;;;5033788;28;20497;-81
2023/09/28 02:07:06;;;;;;;7.05;6.38;;;18.00;99.90;;;;;;5034031;28;20049;-81
2023/09/28 02:09:32;;;;;;;7.22;6.03;;;18.00;99.90;;;;;;5033558;28;20045;-81
2023/09/28 02:11:58;;;;;;;6.50;5.90;;;18.00;99.90;;;;;;5033859;28;20041;-80
2023/09/28 02:14:24;;;;;;;8.07;5.75;;;18.00;99.90;;;;;;5032771;28;20109;-81
2023/09/28 02:16:50;;;;;;;6.20;5.15;;;17.90;99.90;;;;;;5033462;28;20049;-81
2023/09/28 02:19:16;;;;;;;7.40;6.40;;;17.90;99.90;;;;;;5033560;28;20042;-81
2023/09/28 02:21:43;;;;;;;8.10;5.65;;;17.80;99.90;;;;;;5033843;28;20382;-82
2023/09/28 02:24:09;;;;;;;6.68;5.47;;;17.80;99.90;;;;;;5033397;28;20064;-81
2023/09/28 02:26:35;;;;;;;6.97;6.32;;;17.80;99.90;;;;;;5033293;28;20049;-81
2023/09/28 02:29:02;;;;;;;7.20;6.05;;;17.70;99.90;;;;;;5033181;28;20132;-82
2023/09/28 02:31:28;;;;;;;8.68;6.70;;;17.70;99.90;;;;;;5033403;28;20045;-81
2023/09/28 02:33:54;;;;;;;7.32;5.82;;;17.70;99.90;;;;;;5033312;28;20085;-81
2023/09/28 02:36:20;;;;;;;5.72;5.00;;;17.60;99.90;;;;;;5033092;28;20053;-82
2023/09/28 02:38:47;;;;;;;5.97;5.35;;;17.60;99.90;;;;;;5032843;28;20085;-82
2023/09/28 02:41:20;;;;;;;7.10;5.75;;;17.50;99.90;;;;;;5033009;28;20058;-80
2023/09/28 02:43:46;;;;;;;6.32;5.22;;;17.50;99.90;;;;;;5032992;28;20046;-82
2023/09/28 02:46:13;;;;;;;6.70;5.75;;;17.40;99.90;;;;;;5032958;28;20046;-81
2023/09/28 02:48:39;;;;;;;8.57;6.47;;;17.40;99.90;;;;;;5032459;28;20057;-81
2023/09/28 02:51:06;;;;;;;9.45;6.38;;;17.30;99.90;;;;;;5032770;28;20049;-81
2023/09/28 02:53:32;;;;;;;7.05;5.60;;;17.30;99.90;;;;;;5032904;28;20057;-81
2023/09/28 02:55:59;;;;;;;6.47;5.82;;;17.30;99.90;;;;;;5033321;28;20045;-81
2023/09/28 02:58:25;;;;;;;6.47;5.88;;;17.20;99.90;;;;;;5032770;28;20046;-81
2023/09/28 03:00:55;;;;;;;7.57;5.30;;;17.20;99.90;;;;;;5032981;28;20076;-82
2023/09/28 03:03:21;;;;;;;7.43;5.68;;;17.10;99.90;;;;;;5030983;28;20045;-81
2023/09/28 03:05:47;;;;;;;5.70;5.20;;;17.10;99.90;;;;;;5032677;28;20048;-81
2023/09/28 03:08:14;;;;;;;7.97;6.68;;;17.00;99.90;;;;;;5032129;28;20119;-81
2023/09/28 03:10:43;;;;;;;7.20;6.28;;;17.00;99.90;;;;;;5032545;28;20059;-81
2023/09/28 03:13:11;;;;;;;8.57;6.05;;;17.00;99.90;;;;;;5031518;28;20047;-81
2023/09/28 03:15:39;;;;;;;6.85;6.15;;;16.90;99.90;;;;;;5032934;28;20045;-81
2023/09/28 03:18:05;;;;;;;6.82;6.13;;;17.00;99.90;;;;;;5032387;28;20045;-81
2023/09/28 03:20:31;;;;;;;7.43;6.35;;;16.90;99.90;;;;;;5032491;28;20111;-81
2023/09/28 03:22:57;;;;;;;6.28;5.65;;;16.90;99.90;;;;;;5032343;28;20053;-81
2023/09/28 03:25:22;;;;;;;6.90;6.25;;;16.80;99.90;;;;;;5032247;28;20102;-81
2023/09/28 03:27:50;;;;;;;6.95;6.18;;;16.80;99.90;;;;;;5032674;28;20049;-80
2023/09/28 03:30:17;;;;;;;6.85;6.25;;;16.80;99.90;;;;;;5032470;28;20053;-81
2023/09/28 03:32:44;;;;;;;7.35;6.55;;;16.80;99.90;;;;;;5031894;28;20466;-80
2023/09/28 03:35:10;;;;;;;9.18;7.00;;;16.80;99.90;;;;;;5032362;28;20057;-80
2023/09/28 03:37:40;;;;;;;7.65;6.72;;;16.80;99.90;;;;;;5032026;28;20097;-81
2023/09/28 03:40:10;;;;;;;9.18;6.85;;;16.80;99.90;;;;;;5032277;28;20049;-80
2023/09/28 03:42:40;;;;;;;7.10;6.20;;;16.80;99.90;;;;;;5032837;28;20377;-81
2023/09/28 03:45:11;;;;;;;12.88;6.90;;;16.80;99.90;;;;;;5015065;28;20521;-80
2023/09/28 03:47:41;;;;;;;7.95;6.03;;;16.80;99.90;;;;;;5032215;28;20049;-81
2023/09/28 03:50:10;;;;;;;7.80;6.57;;;16.70;99.90;;;;;;5032308;28;20091;-81
2023/09/28 03:52:37;;;;;;;8.75;6.85;;;16.60;99.90;;;;;;5032142;28;20050;-81
2023/09/28 03:55:04;;;;;;;7.53;6.22;;;16.70;99.90;;;;;;5032385;28;20100;-80
2023/09/28 03:57:30;;;;;;;7.25;6.55;;;16.70;99.90;;;;;;5032521;28;20088;-80
2023/09/28 03:59:56;;;;;;;10.98;6.82;;;16.60;99.90;;;;;;5032105;28;20052;-81
2023/09/28 04:02:27;;;;;;;8.30;7.50;;;16.60;99.90;;;;;;5031128;28;20045;-81
2023/09/28 04:04:53;;;;;;;9.55;8.55;;;16.60;99.90;;;;;;5032599;28;20128;-80
2023/09/28 04:07:18;;;;;;;9.40;7.32;;;16.50;99.90;;;;;;5032946;28;20561;-80
2023/09/28 04:09:44;;;;;;;7.63;6.82;;;16.50;99.90;;;;;;5031999;28;20056;-81
2023/09/28 04:12:12;;;;;;;10.00;6.80;;;16.50;99.90;;;;;;5032132;28;20077;-81
2023/09/28 04:14:37;;;;;;;10.63;8.57;;;16.40;99.90;;;;;;5032658;28;20114;-81
2023/09/28 04:17:03;;;;;;;10.75;7.82;;;16.50;99.90;;;;;;5035820;28;20455;-81
2023/09/28 04:19:30;;;;;;;11.63;8.02;;;16.40;99.90;;;;;;5035674;28;20041;-80
2023/09/28 04:21:56;;;;;;;9.07;7.55;;;16.40;99.90;;;;;;5035688;28;20045;-81
2023/09/28 04:24:22;;;;;;;9.60;7.53;;;16.40;99.90;;;;;;5035283;28;20057;-81
2023/09/28 04:26:47;;;;;;;7.70;6.85;;;16.40;99.90;;;;;;5034354;28;20045;-82
2023/09/28 04:29:13;;;;;;;11.88;7.40;;;16.30;99.90;;;;;;5035667;28;20042;-81
2023/09/28 04:31:40;;;;;;;10.80;8.77;;;16.30;99.90;;;;;;5034995;28;20455;-81
2023/09/28 04:34:07;;;;;;;9.27;8.25;;;16.20;99.90;;;;;;5035022;28;20072;-81
2023/09/28 04:36:33;;;;;;;9.25;8.05;;;16.20;99.90;;;;;;5035448;28;20049;-80
2023/09/28 04:39:00;;;;;;;9.48;8.48;;;16.20;99.90;;;;;;5036126;28;20053;-80
2023/09/28 04:41:26;;;;;;;10.52;7.97;;;16.10;99.90;;;;;;5035539;28;20041;-81
2023/09/28 04:43:52;;;;;;;10.68;8.70;;;16.10;99.90;;;;;;5035327;28;20081;-81
2023/09/28 04:46:17;;;;;;;10.05;8.07;;;16.00;99.90;;;;;;5035157;28;20092;-79
2023/09/28 04:48:43;;;;;;;11.45;8.57;;;16.00;99.90;;;;;;5034845;28;20083;-81
2023/09/28 04:51:09;;;;;;;10.25;8.32;;;16.00;99.90;;;;;;5033764;28;20047;-81
2023/09/28 04:53:35;;;;;;;9.82;8.38;;;16.00;99.90;;;;;;5034984;28;20120;-81
2023/09/28 04:56:11;;;;;;;11.50;8.13;;;15.90;99.90;;;;;;5035181;28;20487;-80
2023/09/28 04:58:36;;;;;;;9.65;7.82;;;15.90;99.90;;;;;;5034321;28;20087;-81
2023/09/28 05:01:02;;;;;;;9.38;8.48;;;15.90;99.90;;;;;;5033813;28;20053;-81
2023/09/28 05:03:28;;;;;;;9.43;8.43;;;15.90;99.90;;;;;;5034927;28;20046;-81
2023/09/28 05:05:53;;;;;;;8.32;7.45;;;16.20;99.90;;;;;;5033914;28;20081;-81
2023/09/28 05:08:19;;;;;;;12.52;8.25;;;15.90;99.90;;;;;;5034728;28;20124;-81
2023/09/28 05:10:45;;;;;;;9.18;7.43;;;15.80;99.90;;;;;;5034135;28;20336;-81
2023/09/28 05:13:13;;;;;;;10.63;8.68;;;15.70;99.90;;;;;;5034589;28;20049;-82
2023/09/28 05:15:38;;;;;;;9.52;8.32;;;15.70;99.90;;;;;;5034624;28;20041;-82
2023/09/28 05:18:04;;;;;;;12.10;8.95;;;15.70;99.90;;;;;;5033530;28;20049;-80
2023/09/28 05:20:31;;;;;;;12.00;8.40;;;15.70;99.90;;;;;;5034390;28;20041;-81
2023/09/28 05:22:57;;;;;;;8.27;7.47;;;15.70;99.90;;;;;;5034233;28;20124;-81
2023/09/28 05:25:22;;;;;;;8.80;7.95;;;15.70;99.90;;;;;;5034045;28;20084;-81
2023/09/28 05:27:48;;;;;;;8.85;7.95;;;15.70;99.90;;;;;;5034636;28;20120;-80
2023/09/28 05:30:15;;;;;;;11.10;8.80;;;15.70;99.90;;;;;;5034065;28;20444;-80
2023/09/28 05:32:41;;;;;;;10.43;8.50;;;15.70;99.90;;;;;;5034097;28;20057;-81
2023/09/28 05:35:07;;;;;;;9.60;7.80;;;15.60;99.90;;;;;;5034371;28;20054;-81
2023/09/28 05:37:33;;;;;;;9.20;7.95;;;15.60;99.90;;;;;;5034029;28;20057;-80
2023/09/28 05:40:04;;;;;;;9.68;8.68;;;15.60;99.90;;;;;;5034420;28;20053;-80
2023/09/28 05:42:34;;;;;;;9.02;7.75;;;15.60;99.90;;;;;;5034687;28;20049;-80
2023/09/28 05:45:00;;;;;;;8.70;7.75;;;15.60;99.90;;;;;;5033936;28;20049;-81
2023/09/28 05:47:26;;;;;;;11.15;8.20;;;15.60;99.90;;;;;;5034192;28;20045;-81
2023/09/28 05:49:52;;;;;;;9.98;7.72;;;15.60;99.90;;;;;;5033799;28;20139;-80
2023/09/28 05:52:18;;;;;;;12.25;8.52;;;15.70;99.90;;;;;;5033915;28;20451;-80
2023/09/28 05:54:45;;;;;;;12.43;8.15;;;15.70;99.90;;;;;;5034139;28;20053;-81
2023/09/28 05:57:13;;;;;;;7.85;7.05;;;15.70;99.90;;;;;;5033863;28;20054;-81
2023/09/28 05:59:39;;;;;;;10.45;7.28;;;15.70;99.90;;;;;;5034108;28;20126;-80
2023/09/28 06:02:05;;;;;;;11.20;7.32;;;15.80;99.90;;;;;;5033348;28;20488;-79
2023/09/28 06:04:30;;;;;;;11.63;6.30;;;15.80;99.90;;;;;;5031895;28;20504;-82
2023/09/28 06:06:56;;;;;;;11.27;7.05;;;15.80;99.90;;;;;;5032778;28;20064;-82
2023/09/28 06:09:22;;;;;;;9.20;6.43;;;15.90;99.90;;;;;;5031978;28;20046;-82
2023/09/28 06:11:48;;;;;;;10.07;7.97;;;15.90;99.90;;;;;;5033272;28;20049;-80
2023/09/28 06:14:15;;;;;;;9.25;6.75;;;16.00;99.90;;;;;;5033462;28;20132;-80
2023/09/28 06:16:43;;;;;;;10.05;6.38;;;16.10;99.90;;;;;;5033057;28;20057;-81
2023/09/28 06:19:09;;;;;;;11.38;7.63;;;16.10;99.90;;;;;;5033053;28;20038;-83
2023/09/28 06:21:35;;;;;;;8.27;6.30;;;16.20;99.90;;;;;;5033600;28;20053;-81
2023/09/28 06:24:02;;;;;;;10.32;7.55;;;16.20;99.90;;;;;;5033656;28;20060;-80
2023/09/28 06:26:28;;;;;;;11.27;6.40;;;16.30;99.90;;;;;;5033203;28;20116;-80
2023/09/28 06:28:53;;;;;;;8.63;6.50;;;16.30;99.90;;;;;;5033375;28;20469;-80
2023/09/28 06:31:19;;;;;;;12.30;7.28;;;16.30;99.90;;;;;;5033632;28;20049;-80
2023/09/28 06:33:46;;;;;;;9.98;6.97;;;16.40;99.90;;;;;;5032994;28;20041;-80
2023/09/28 06:36:12;;;;;;;14.60;7.45;;;16.40;99.90;;;;;;5033128;28;20049;-80
2023/09/28 06:38:38;;;;;;;10.65;7.15;;;16.60;99.90;;;;;;5031102;28;20147;-80
2023/09/28 06:41:04;;;;;;;10.30;7.20;;;16.60;99.90;;;;;;5031761;28;20049;-79
2023/09/28 06:43:30;;;;;;;10.25;6.53;;;16.70;99.90;;;;;;5033086;28;20053;-82
2023/09/28 06:45:59;;;;;;;10.48;6.68;;;16.70;99.90;;;;;;5032673;28;20510;-80
2023/09/28 06:48:28;;;;;;;12.68;6.40;;;16.80;99.90;;;;;;5032786;28;20048;-81
2023/09/28 06:50:59;;;;;;;12.32;6.97;;;16.90;99.90;;;;;;5032799;28;20053;-81
2023/09/28 06:53:25;;;;;;;8.85;6.43;;;17.00;99.90;;;;;;5033468;28;20053;-84
2023/09/28 06:55:52;;;;;;;11.52;6.80;;;17.10;99.90;;;;;;5033212;28;20085;-83
2023/09/28 06:58:19;;;;;;;13.02;6.32;;;17.10;99.90;;;;;;5032803;28;20041;-82
2023/09/28 07:00:45;;;;;;;12.07;6.80;;;17.20;99.90;;;;;;5033163;28;20466;-84
2023/09/28 07:03:13;;;;;;;11.52;6.85;;;17.30;99.90;;;;;;5032761;28;20041;-83
2023/09/28 07:05:39;;;;;;;11.27;6.55;;;17.30;99.90;;;;;;5032598;28;20045;-84
2023/09/28 07:08:05;;;;;;;13.45;6.70;;;17.40;99.90;;;;;;5033091;28;20467;-81
2023/09/28 07:10:35;;;;;;;9.25;6.15;;;17.60;99.90;;;;;;5032514;28;20100;-81
2023/09/28 07:13:04;;;;;;;12.50;6.88;;;17.70;99.90;;;;;;5032883;28;20049;-81
2023/09/28 07:15:30;;;;;;;22.77;6.07;;;17.80;99.90;;;;;;5032848;28;20045;-81
2023/09/28 07:17:56;;;;;;;15.55;5.47;;;17.90;99.90;;;;;;5031791;28;20049;-81
2023/09/28 07:20:23;;;;;;;8.48;5.95;;;18.00;99.90;;;;;;5032725;28;20132;-81
2023/09/28 07:22:49;;;;;;;12.68;6.32;;;18.00;99.90;;;;;;5032493;28;20046;-80
2023/09/28 07:25:15;;;;;;;13.15;5.80;;;18.10;99.90;;;;;;5032422;28;20120;-80
2023/09/28 07:27:42;;;;;;;15.30;6.15;;;18.20;99.90;;;;;;5032266;28;20565;-82
2023/09/28 07:30:10;;;;;;;18.67;6.65;;;18.20;99.90;;;;;;5032484;28;20045;-82
2023/09/28 07:32:37;;;;;;;15.27;5.72;;;18.20;99.90;;;;;;5032326;28;20049;-82
2023/09/28 07:35:03;;;;;;;14.38;6.53;;;18.30;99.90;;;;;;5032650;28;20041;-80
2023/09/28 07:37:29;;;;;;;11.82;5.00;;;18.30;99.90;;;;;;5032069;28;20199;-83
2023/09/28 07:39:55;;;;;;;13.00;5.70;;;18.30;99.90;;;;;;5032306;28;20081;-85
2023/09/28 07:42:21;;;;;;;11.30;5.05;;;18.40;99.90;;;;;;5032375;28;20068;-78
2023/09/28 07:44:51;;;;;;;16.73;6.20;;;18.70;99.90;;;;;;5031182;28;20063;-78
2023/09/28 07:47:19;;;;;;;14.80;5.15;;;18.60;99.90;;;;;;5032301;28;20049;-77
2023/09/28 07:49:45;;;;;;;10.10;5.07;;;18.80;99.90;;;;;;5035462;28;20111;-75
2023/09/28 07:52:11;;;;;;;8.95;4.78;;;19.00;99.90;;;;;;5036301;28;20046;-75
2023/09/28 07:54:37;;;;;;;16.52;5.63;;;19.20;99.90;;;;;;5036180;28;20041;-75
2023/09/28 07:57:04;;;;;;;13.23;5.03;;;19.70;99.90;;;;;;5036081;28;20070;-78
2023/09/28 07:59:34;;;;;;;15.80;5.43;;;20.60;99.90;;;;;;5036100;28;20034;-83
2023/09/28 08:02:01;;;;;;;21.13;6.15;;;21.40;99.90;;;;;;5035931;28;20123;-83
2023/09/28 08:04:27;;;;;;;13.57;5.95;;;22.10;99.90;;;;;;5036139;28;20049;-84
2023/09/28 08:06:54;;;;;;;15.02;5.35;;;22.70;99.90;;;;;;5036392;28;20053;-75
2023/09/28 08:09:20;;;;;;;13.57;4.90;;;23.40;99.90;;;;;;5034698;28;20136;-74
2023/09/28 08:11:49;;;;;;;10.70;6.13;;;23.90;99.90;;;;;;5018304;28;20597;-75
2023/09/28 08:14:16;;;;;;;11.32;4.80;;;23.90;99.90;;;;;;5035688;28;20642;-75
2023/09/28 08:16:45;;;;;;;15.95;4.60;;;24.40;99.90;;;;;;5035485;28;20481;-74
2023/09/28 08:19:12;;;;;;;16.00;5.40;;;24.50;99.90;;;;;;5034402;28;20441;-75
2023/09/28 08:21:41;;;;;;;13.90;5.25;;;24.50;99.90;;;;;;5036486;28;20049;-76
2023/09/28 08:24:08;;;;;;;14.27;5.75;;;24.10;99.90;;;;;;5045861;28;20037;-78
2023/09/28 08:26:35;;;;;;;14.02;5.40;;;24.00;99.90;;;;;;5043627;28;20053;-83
2023/09/28 08:29:03;;;;;;;8.88;4.25;;;23.70;99.90;;;;;;5035975;28;20050;-83
2023/09/28 08:31:32;;;;;;;20.00;6.22;;;23.60;99.90;;;;;;5035378;28;20525;-82
2023/09/28 08:33:59;;;;;;;16.58;4.90;;;23.50;99.90;;;;;;5035268;28;20554;-81
2023/09/28 08:36:29;;;;;;;14.35;4.88;;;23.60;99.90;;;;;;5034284;28;20042;-82
2023/09/28 08:38:58;;;;;;;16.55;5.85;;;24.00;99.90;;;;;;5036026;28;20057;-84
2023/09/28 08:41:36;;;;;;;13.60;5.10;;;24.60;99.90;;;;;;5035817;28;20045;-81
2023/09/28 08:44:04;;;;;;;15.35;5.43;;;25.10;99.90;;;;;;5035572;28;20403;-83
2023/09/28 08:46:40;;;;;;;12.95;4.57;;;25.50;99.90;;;;;;5035068;28;20060;-81
2023/09/28 08:49:07;;;;;;;13.85;4.70;;;25.60;99.90;;;;;;5035567;28;20061;-82
2023/09/28 08:51:40;;;;;;;14.48;5.22;;;25.70;99.70;;;;;;5035197;28;20049;-81
2023/09/28 08:54:06;;;;;;;13.93;5.55;;;25.60;97.50;;;;;;5035112;28;20057;-81
2023/09/28 08:56:35;;;;;;;13.73;4.57;;;25.10;99.00;;;;;;5035233;28;20049;-82
2023/09/28 08:59:02;;;;;;;12.38;4.30;;;24.70;98.30;;;;;;5035181;28;20462;-82
2023/09/28 09:01:30;;;;;;;11.73;4.10;;;24.10;98.10;;;;;;5034199;28;20057;-81
2023/09/28 09:03:57;;;;;;;13.90;4.78;;;23.60;98.90;;;;;;5035151;28;20484;-81
2023/09/28 09:06:24;;;;;;;14.75;4.55;;;22.90;99.90;;;;;;5035372;28;20053;-81
2023/09/28 09:08:50;;;;;;;11.68;4.20;;;22.50;99.90;;;;;;5034809;28;20053;-81
2023/09/28 09:11:16;;;;;;;15.13;5.40;;;22.50;99.90;;;;;;5035084;28;20048;-81
2023/09/28 09:13:55;;;;;;;13.85;5.30;;;22.70;99.90;;;;;;5034383;28;20471;-82
2023/09/28 09:16:25;;;;;;;11.85;4.80;;;22.70;99.90;;;;;;5034731;28;20516;-82
2023/09/28 09:18:53;;;;;;;16.67;5.47;;;22.80;99.90;;;;;;5033722;28;20053;-81
2023/09/28 09:21:19;;;;;;;16.42;5.53;;;22.60;99.90;;;;;;5034641;28;20046;-86
2023/09/28 09:24:01;;;;;;;17.88;4.78;;;22.60;99.90;;;;;;5034587;28;20455;-83
2023/09/28 09:26:27;;;;;;;10.60;5.20;;;22.40;99.90;;;;;;5033825;28;20438;-83
2023/09/28 09:28:58;;;;;;;18.77;5.30;;;22.20;99.90;;;;;;5032572;28;20038;-81
2023/09/28 09:31:25;;;;;;;16.10;5.30;;;22.10;99.90;;;;;;5034207;28;20049;-88
2023/09/28 09:33:50;;;;;;;13.63;5.57;;;21.90;99.90;;;;;;5034368;28;20053;-86
2023/09/28 09:36:19;;;;;;;12.60;5.60;;;21.60;99.90;;;;;;5034019;28;20128;-85
2023/09/28 09:38:45;;;;;;;14.32;5.53;;;21.40;99.90;;;;;;5034403;28;20133;-84
2023/09/28 09:41:11;;;;;;;12.13;4.85;;;21.20;99.90;;;;;;5034627;28;20057;-79
2023/09/28 09:43:40;;;;;;;13.38;5.22;;;21.00;99.90;;;;;;5034308;28;20553;-81
2023/09/28 09:46:07;;;;;;;13.63;5.35;;;21.00;99.90;;;;;;5034531;28;20045;-83
2023/09/28 09:48:38;;;;;;;17.23;5.53;;;20.80;99.90;;;;;;5033886;28;20056;-81
2023/09/28 09:51:06;;;;;;;14.23;5.53;;;20.80;99.90;;;;;;5034215;28;20049;-82
2023/09/28 09:53:34;;;;;;;13.77;5.18;;;20.80;99.90;;;;;;5033977;28;20056;-79
2023/09/28 09:56:04;;;;;;;15.75;5.15;;;20.80;99.90;;;;;;5033838;28;20057;-83
2023/09/28 09:58:37;;;;;;;17.67;5.47;;;21.00;99.90;;;;;;5034175;28;20049;-82
2023/09/28 10:01:06;;;;;;;16.13;5.70;;;20.90;99.90;;;;;;5033673;28;20073;-78
2023/09/28 10:03:32;;;;;;;13.18;5.30;;;20.80;99.90;;;;;;5032809;28;20508;-82
2023/09/28 10:06:01;;;;;;;12.52;5.20;;;20.90;99.90;;;;;;5033699;28;20054;-80
2023/09/28 10:08:31;;;;;;;13.00;4.55;;;20.90;99.90;;;;;;5033566;28;20476;-83
2023/09/28 10:10:58;;;;;;;13.20;6.25;;;20.90;99.90;;;;;;5033587;28;20179;-83
2023/09/28 10:13:24;;;;;;;11.90;6.03;;;20.80;99.90;;;;;;5032539;28;20064;-82
2023/09/28 10:15:50;;;;;;;16.05;5.47;;;20.70;99.90;;;;;;5033872;28;20054;-82
2023/09/28 10:18:16;;;;;;;16.13;5.05;;;20.60;99.90;;;;;;5033719;28;20047;-83
2023/09/28 10:20:42;;;;;;;15.95;5.13;;;20.60;99.90;;;;;;5033516;28;20053;-82
2023/09/28 10:23:16;;;;;;;12.75;5.28;;;20.60;99.90;;;;;;5033346;28;20103;-82
2023/09/28 10:26:16;;;;;;;11.55;5.32;;;20.80;99.90;;;;;;5033824;28;20050;-82
2023/09/28 10:29:06;;;;;;;9.32;4.78;;;20.80;99.90;;;;;;5033235;28;20052;-84
2023/09/28 10:31:42;;;;;;;12.80;5.07;;;20.90;99.90;;;;;;5032902;28;20055;-81
2023/09/28 10:34:15;;;;;;;11.93;5.55;;;20.90;99.90;;;;;;5032929;28;20096;-80
2023/09/28 10:36:41;;;;;;;16.05;6.70;;;21.00;99.90;;;;;;5033005;28;20132;-85
2023/09/28 10:39:16;;;;;;;13.60;4.95;;;20.90;99.90;;;;;;5032395;28;20134;-81
2023/09/28 10:41:52;;;;;;;16.77;6.13;;;20.90;99.90;;;;;;5032987;28;20053;-85
2023/09/28 10:44:20;;;;;;;11.38;5.88;;;21.00;99.90;;;;;;5033119;28;20053;-83
2023/09/28 10:46:50;;;;;;;11.50;5.28;;;20.90;99.90;;;;;;5033259;28;20382;-85
2023/09/28 10:49:23;;;;;;;13.93;5.22;;;21.00;99.90;;;;;;5032145;28;20051;-83
2023/09/28 10:51:55;;;;;;;13.40;5.18;;;20.50;99.90;;;;;;5032792;28;20046;-84
2023/09/28 10:54:23;;;;;;;13.45;5.40;;;20.70;99.90;;;;;;5032715;28;20623;-83
2023/09/28 10:56:49;;;;;;;16.20;5.15;;;20.80;99.90;;;;;;5032921;28;20053;-81
2023/09/28 10:59:17;;;;;;;15.75;6.03;;;20.80;99.90;;;;;;5032657;28;20132;-82
2023/09/28 11:01:47;;;;;;;14.88;5.55;;;20.70;99.90;;;;;;5032558;28;20148;-80
2023/09/28 11:04:14;;;;;;;17.10;5.50;;;20.70;99.90;;;;;;5032266;28;20053;-81
2023/09/28 11:06:43;;;;;;;10.18;5.00;;;20.60;99.90;;;;;;5031368;28;20053;-84
2023/09/28 11:09:09;;;;;;;13.73;6.00;;;20.70;99.90;;;;;;5032386;28;20045;-81
2023/09/28 11:11:39;;;;;;;12.77;5.47;;;20.70;99.90;;;;;;5032477;28;20080;-81
2023/09/28 11:14:05;;;;;;;10.55;4.93;;;20.70;99.90;;;;;;5032498;28;20091;-83
2023/09/28 11:16:38;;;;;;;17.00;5.20;;;20.70;99.90;;;;;;5032637;28;20049;-86
2023/09/28 11:19:04;;;;;;;;;;;20.70;99.90;;;;;;5032895;28;20038;-83
2023/09/28 11:21:30;;;;;;;17.38;5.88;;;20.60;99.90;;;;;;5032506;28;19928;-85
2023/09/28 11:23:56;;;;;;;14.23;5.50;;;20.60;99.90;;;;;;5031947;28;20053;-80
2023/09/28 11:26:23;;;;;;;10.35;4.50;;;20.60;99.90;;;;;;5031046;28;20045;-83
2023/09/28 11:28:50;;;;;;;14.85;5.88;;;20.60;99.90;;;;;;5032841;28;20197;-85
2023/09/28 11:31:16;;;;;;;18.55;6.22;;;20.60;99.90;;;;;;5031232;28;20057;-80
2023/09/28 11:33:44;;;;;;;11.32;5.38;;;20.50;99.90;;;;;;5032546;28;20199;-84
2023/09/28 11:36:18;;;;;;;14.60;5.95;;;20.60;99.90;;;;;;5031080;28;20447;-81
2023/09/28 11:38:45;;;;;;;13.82;4.38;;;20.60;99.90;;;;;;5032083;28;20478;-84
2023/09/28 11:41:12;;;;;;;12.50;5.22;;;20.70;99.90;;;;;;5032291;28;20053;-84
2023/09/28 11:43:49;;;;;;;17.05;6.40;;;20.80;99.90;;;;;;5031829;28;20050;-80
2023/09/28 11:46:25;;;;;;;14.60;4.95;;;20.80;99.90;;;;;;5031255;28;20129;-85
2023/09/28 11:49:11;;;;;;;12.80;4.47;;;20.90;99.90;;;;;;5032702;28;20095;-86
2023/09/28 11:51:38;;;;;;;13.98;4.57;;;20.90;99.90;;;;;;5031936;28;20045;-85
2023/09/28 11:54:08;;;;;;;16.80;5.35;;;21.00;99.90;;;;;;5032020;28;20045;-82
2023/09/28 11:56:34;;;;;;;12.30;4.47;;;21.00;99.90;;;;;;5032360;28;20080;-84
2023/09/28 11:59:00;;;;;;;12.48;5.20;;;21.00;99.90;;;;;;5032383;28;20049;-85
2023/09/28 12:01:26;;;;;;;19.77;6.32;;;21.00;99.90;;;;;;5031938;28;20052;-84
2023/09/28 12:03:52;;;;;;;9.65;4.78;;;21.00;99.90;;;;;;5031906;28;20141;-81
2023/09/28 12:06:18;;;;;;;14.90;5.10;;;21.00;99.90;;;;;;5032270;28;20438;-82
2023/09/28 12:08:44;;;;;;;15.63;5.60;;;21.00;99.90;;;;;;5031875;28;20152;-83
2023/09/28 12:11:10;;;;;;;14.77;5.60;;;21.00;99.90;;;;;;5014482;28;20414;-86
2023/09/28 12:13:39;;;;;;;13.85;4.85;;;21.10;99.90;;;;;;5031948;28;20045;-87
2023/09/28 12:16:05;;;;;;;10.57;4.70;;;21.20;99.90;;;;;;5030821;28;20045;-87
2023/09/28 12:18:32;;;;;;;10.30;5.20;;;21.20;99.90;;;;;;5031979;28;20048;-84
2023/09/28 12:20:58;;;;;;;17.50;6.18;;;21.30;99.90;;;;;;5031678;28;20127;-83
2023/09/28 12:23:25;;;;;;;20.20;5.53;;;21.30;99.90;;;;;;5030693;28;20096;-87
2023/09/28 12:25:51;;;;;;;11.40;5.22;;;21.30;99.90;;;;;;5030731;28;20072;-85
2023/09/28 12:28:17;;;;;;;10.27;4.85;;;21.30;99.90;;;;;;5031644;28;20072;-83
2023/09/28 12:30:43;;;;;;;12.98;5.45;;;21.20;99.90;;;;;;5032032;28;20041;-81
2023/09/28 12:33:09;;;;;;;15.50;5.00;;;21.20;99.90;;;;;;5031719;28;20045;-86
2023/09/28 12:35:35;;;;;;;13.77;5.18;;;21.20;99.90;;;;;;5033038;28;20052;-82
2023/09/28 12:38:04;;;;;;;18.00;4.80;;;21.20;99.90;;;;;;5034808;28;20539;-81
2023/09/28 12:40:34;;;;;;;18.13;5.38;;;21.10;99.90;;;;;;5035454;28;20100;-83
2023/09/28 12:43:04;;;;;;;18.17;5.35;;;20.90;99.90;;;;;;5034855;28;20050;-86
2023/09/28 12:45:35;;;;;;;13.55;4.85;;;20.80;99.90;;;;;;5035696;28;20049;-85
2023/09/28 12:48:05;;;;;;;13.02;5.35;;;20.90;99.90;;;;;;5035152;28;20041;-84